Aviation Digital Data Service (ADDS)

Output produced by METARs form (1122 UTC 24 May 2022)
found at http://www.aviationweather.gov/metar/data/
 
VTSG 241100Z 24005KT 9999 FEW030 31/25 Q1008 NOSIG
VTSG 241000Z VRB06KT 9999 FEW040 31/25 Q1008 NOSIG
VTSG 240900Z 24006KT 180V260 9999 -RA FEW020CB BKN040 32/25 Q1008 NOSIG
VTSG 240800Z 23007KT 200V260 9999 FEW020CB SCT040 32/25 Q1008 NOSIG
VTSG 240700Z 23009KT 200V290 9999 SCT030 33/25 Q1009 NOSIG
VTSG 240600Z 23008KT 9999 BKN030 34/26 Q1009 NOSIG
VTSG 240500Z 25009KT 210V290 9999 BKN030 33/26 Q1010 NOSIG
VTSG 240400Z 22008KT 150V250 9999 VCSH FEW020CB BKN030 33/26 Q1011 NOSIG
VTSG 240300Z 22007KT 180V260 9999 BKN030 32/26 Q1011 NOSIG
VTSG 240200Z VRB02KT 9999 FEW018 31/27 Q1011 NOSIG
VTSG 240100Z VRB01KT 9999 FEW020 29/26 Q1010 NOSIG
VTSG 240000Z 00000KT 9999 FEW020 26/25 Q1009 NOSIG
VTSG 232300Z VRB01KT 9000 FEW020 24/24 Q1009 NOSIG
VTSG 232200Z VRB01KT 9999 FEW020 24/24 Q1008 NOSIG
VTSG 232100Z 08002KT 9999 FEW020 24/24 Q1007 NOSIG
VTSG 232000Z 00000KT 9999 FEW020 24/24 Q1007 NOSIG
VTSG 231900Z 08002KT 9999 FEW020 25/24 Q1008 NOSIG
VTSG 231800Z 06002KT 9999 FEW020 25/24 Q1008 NOSIG
VTSG 231700Z 08002KT 9999 FEW020 25/24 Q1009 NOSIG
VTSG 231600Z 09002KT 9999 FEW020 25/25 Q1009 NOSIG
VTSG 231500Z 00000KT 9999 FEW020 26/25 Q1008 NOSIG
VTSG 231400Z VRB01KT 9999 FEW020 26/25 Q1007 NOSIG
VTSG 231300Z 27003KT 9999 FEW020 27/25 Q1006 NOSIG
VTSG 231200Z 27005KT 240V300 9999 FEW020 29/24 Q1006 NOSIG
VTSG 231100Z 27004KT 9999 FEW020 30/25 Q1005 NOSIG
VTSG 231030Z 27004KT 9999 FEW020 30/25 Q1005 NOSIG
TAF VTSG 240500Z 2406/2506 26008KT 9999 FEW020 
     BECMG 2412/2414 00000KT 
     BECMG 2500/2502 26006KT